sensor_id;sensor_type;location;lat;lon;timestamp;temperature;humidity
34837;DHT22;21053;50.848;4.652;2023-02-12T00:01:10;8.70;99.90
34837;DHT22;21053;50.848;4.652;2023-02-12T00:03:40;8.70;99.90
34837;DHT22;21053;50.848;4.652;2023-02-12T00:06:27;8.80;99.90
34837;DHT22;21053;50.848;4.652;2023-02-12T00:08:56;8.90;99.90
34837;DHT22;21053;50.848;4.652;2023-02-12T00:11:28;8.90;99.90
34837;DHT22;21053;50.848;4.652;2023-02-12T00:13:56;8.80;99.90
34837;DHT22;21053;50.848;4.652;2023-02-12T00:16:27;8.80;99.90
34837;DHT22;21053;50.848;4.652;2023-02-12T00:18:55;8.80;99.90
34837;DHT22;21053;50.848;4.652;2023-02-12T00:21:24;8.80;99.90
34837;DHT22;21053;50.848;4.652;2023-02-12T00:23:53;8.70;99.90
34837;DHT22;21053;50.848;4.652;2023-02-12T00:26:19;8.60;99.90
34837;DHT22;21053;50.848;4.652;2023-02-12T00:28:49;8.50;99.90
34837;DHT22;21053;50.848;4.652;2023-02-12T00:31:27;8.50;99.90
34837;DHT22;21053;50.848;4.652;2023-02-12T00:33:54;8.20;99.90
34837;DHT22;21053;50.848;4.652;2023-02-12T00:36:24;8.30;99.90
34837;DHT22;21053;50.848;4.652;2023-02-12T00:38:53;8.40;99.90
34837;DHT22;21053;50.848;4.652;2023-02-12T00:41:21;8.50;99.90
34837;DHT22;21053;50.848;4.652;2023-02-12T00:43:48;8.50;99.90
34837;DHT22;21053;50.848;4.652;2023-02-12T00:46:16;8.60;99.90
34837;DHT22;21053;50.848;4.652;2023-02-12T00:48:44;8.60;99.90
34837;DHT22;21053;50.848;4.652;2023-02-12T00:51:11;8.60;99.90
34837;DHT22;21053;50.848;4.652;2023-02-12T00:53:37;8.60;99.90
34837;DHT22;21053;50.848;4.652;2023-02-12T00:56:05;8.60;99.90
34837;DHT22;21053;50.848;4.652;2023-02-12T00:58:30;8.60;99.90
34837;DHT22;21053;50.848;4.652;2023-02-12T01:00:59;8.70;99.90
34837;DHT22;21053;50.848;4.652;2023-02-12T01:03:28;8.60;99.90
34837;DHT22;21053;50.848;4.652;2023-02-12T01:05:57;8.50;99.90
34837;DHT22;21053;50.848;4.652;2023-02-12T01:08:25;8.50;99.90
34837;DHT22;21053;50.848;4.652;2023-02-12T01:10:57;8.40;99.90
34837;DHT22;21053;50.848;4.652;2023-02-12T01:13:27;8.50;99.90
34837;DHT22;21053;50.848;4.652;2023-02-12T01:16:08;8.40;99.90
34837;DHT22;21053;50.848;4.652;2023-02-12T01:18:41;8.40;99.90
34837;DHT22;21053;50.848;4.652;2023-02-12T01:21:19;8.30;99.90
34837;DHT22;21053;50.848;4.652;2023-02-12T01:23:47;8.30;99.90
34837;DHT22;21053;50.848;4.652;2023-02-12T01:26:21;8.40;99.90
34837;DHT22;21053;50.848;4.652;2023-02-12T01:28:53;8.40;99.90
34837;DHT22;21053;50.848;4.652;2023-02-12T01:31:23;8.40;99.90
34837;DHT22;21053;50.848;4.652;2023-02-12T01:33:54;8.50;99.90
34837;DHT22;21053;50.848;4.652;2023-02-12T01:36:24;8.50;99.90
34837;DHT22;21053;50.848;4.652;2023-02-12T01:38:52;8.50;99.90
34837;DHT22;21053;50.848;4.652;2023-02-12T01:41:21;8.50;99.90
34837;DHT22;21053;50.848;4.652;2023-02-12T01:44:11;8.40;99.90
34837;DHT22;21053;50.848;4.652;2023-02-12T01:46:39;8.10;99.90
34837;DHT22;21053;50.848;4.652;2023-02-12T01:49:12;8.10;99.90
34837;DHT22;21053;50.848;4.652;2023-02-12T01:51:39;8.00;99.90
34837;DHT22;21053;50.848;4.652;2023-02-12T01:54:10;8.10;99.90
34837;DHT22;21053;50.848;4.652;2023-02-12T01:56:41;8.10;99.90
34837;DHT22;21053;50.848;4.652;2023-02-12T01:59:10;8.20;99.90
34837;DHT22;21053;50.848;4.652;2023-02-12T02:01:40;8.20;99.90
34837;DHT22;21053;50.848;4.652;2023-02-12T02:04:16;8.00;99.90
34837;DHT22;21053;50.848;4.652;2023-02-12T02:07:01;8.10;99.90
34837;DHT22;21053;50.848;4.652;2023-02-12T02:09:32;8.20;99.90
34837;DHT22;21053;50.848;4.652;2023-02-12T02:12:00;8.20;99.90
34837;DHT22;21053;50.848;4.652;2023-02-12T02:14:48;8.30;99.90
34837;DHT22;21053;50.848;4.652;2023-02-12T02:29:09;8.20;99.90
34837;DHT22;21053;50.848;4.652;2023-02-12T02:34:28;8.10;99.90
34837;DHT22;21053;50.848;4.652;2023-02-12T02:37:13;8.10;99.90
34837;DHT22;21053;50.848;4.652;2023-02-12T02:42:35;8.20;99.90
34837;DHT22;21053;50.848;4.652;2023-02-12T02:45:13;8.30;99.90
34837;DHT22;21053;50.848;4.652;2023-02-12T02:48:00;8.40;99.90
34837;DHT22;21053;50.848;4.652;2023-02-12T02:50:29;8.30;99.90
34837;DHT22;21053;50.848;4.652;2023-02-12T02:53:25;8.20;99.90
34837;DHT22;21053;50.848;4.652;2023-02-12T02:55:57;8.20;99.90
34837;DHT22;21053;50.848;4.652;2023-02-12T02:58:36;8.20;99.90
34837;DHT22;21053;50.848;4.652;2023-02-12T03:06:36;8.10;99.90
34837;DHT22;21053;50.848;4.652;2023-02-12T03:09:18;8.20;99.90
34837;DHT22;21053;50.848;4.652;2023-02-12T03:11:49;8.10;99.90
34837;DHT22;21053;50.848;4.652;2023-02-12T03:14:28;8.10;99.90
34837;DHT22;21053;50.848;4.652;2023-02-12T03:17:15;8.10;99.90
34837;DHT22;21053;50.848;4.652;2023-02-12T03:20:13;8.00;99.90
34837;DHT22;21053;50.848;4.652;2023-02-12T03:22:40;8.00;99.90
34837;DHT22;21053;50.848;4.652;2023-02-12T03:25:21;8.00;99.90
34837;DHT22;21053;50.848;4.652;2023-02-12T03:28:02;7.90;99.90
34837;DHT22;21053;50.848;4.652;2023-02-12T03:30:48;8.00;99.90
34837;DHT22;21053;50.848;4.652;2023-02-12T03:33:55;8.00;99.90
34837;DHT22;21053;50.848;4.652;2023-02-12T03:42:00;8.20;99.90
34837;DHT22;21053;50.848;4.652;2023-02-12T03:47:36;8.00;99.90
34837;DHT22;21053;50.848;4.652;2023-02-12T03:52:39;8.10;99.90
34837;DHT22;21053;50.848;4.652;2023-02-12T03:55:14;8.10;99.90
34837;DHT22;21053;50.848;4.652;2023-02-12T03:57:44;8.00;99.90
34837;DHT22;21053;50.848;4.652;2023-02-12T04:00:18;7.90;99.90
34837;DHT22;21053;50.848;4.652;2023-02-12T04:02:44;7.90;99.90
34837;DHT22;21053;50.848;4.652;2023-02-12T04:05:23;8.10;99.90
34837;DHT22;21053;50.848;4.652;2023-02-12T04:07:52;8.10;99.90
34837;DHT22;21053;50.848;4.652;2023-02-12T04:10:23;8.00;99.90
34837;DHT22;21053;50.848;4.652;2023-02-12T04:15:57;7.80;99.90
34837;DHT22;21053;50.848;4.652;2023-02-12T04:18:44;7.90;99.90
34837;DHT22;21053;50.848;4.652;2023-02-12T04:24:18;7.90;99.90
34837;DHT22;21053;50.848;4.652;2023-02-12T04:29:50;7.80;99.90
34837;DHT22;21053;50.848;4.652;2023-02-12T04:32:30;7.90;99.90
34837;DHT22;21053;50.848;4.652;2023-02-12T04:35:21;7.90;99.90
34837;DHT22;21053;50.848;4.652;2023-02-12T04:37:52;8.00;99.90
34837;DHT22;21053;50.848;4.652;2023-02-12T04:40:25;8.10;99.90
34837;DHT22;21053;50.848;4.652;2023-02-12T04:42:53;8.20;99.90
34837;DHT22;21053;50.848;4.652;2023-02-12T04:45:23;8.20;99.90
34837;DHT22;21053;50.848;4.652;2023-02-12T04:47:51;8.10;99.90
34837;DHT22;21053;50.848;4.652;2023-02-12T04:50:23;8.00;99.90
34837;DHT22;21053;50.848;4.652;2023-02-12T04:52:52;8.00;99.90
34837;DHT22;21053;50.848;4.652;2023-02-12T04:55:18;8.00;99.90
34837;DHT22;21053;50.848;4.652;2023-02-12T04:57:46;8.00;99.90
34837;DHT22;21053;50.848;4.652;2023-02-12T05:00:13;8.10;99.90
34837;DHT22;21053;50.848;4.652;2023-02-12T05:02:42;7.90;99.90
34837;DHT22;21053;50.848;4.652;2023-02-12T05:05:10;7.80;99.90
34837;DHT22;21053;50.848;4.652;2023-02-12T05:07:39;7.60;99.90
34837;DHT22;21053;50.848;4.652;2023-02-12T05:10:07;7.50;99.90
34837;DHT22;21053;50.848;4.652;2023-02-12T05:12:36;7.70;99.90
34837;DHT22;21053;50.848;4.652;2023-02-12T05:15:05;7.80;99.90
34837;DHT22;21053;50.848;4.652;2023-02-12T05:17:34;7.90;99.90
34837;DHT22;21053;50.848;4.652;2023-02-12T05:20:01;7.90;99.90
34837;DHT22;21053;50.848;4.652;2023-02-12T05:22:29;7.90;99.90
34837;DHT22;21053;50.848;4.652;2023-02-12T05:24:58;8.00;99.90
34837;DHT22;21053;50.848;4.652;2023-02-12T05:27:27;7.90;99.90
34837;DHT22;21053;50.848;4.652;2023-02-12T05:29:56;8.00;99.90
34837;DHT22;21053;50.848;4.652;2023-02-12T05:32:23;7.90;99.90
34837;DHT22;21053;50.848;4.652;2023-02-12T05:34:52;7.90;99.90
34837;DHT22;21053;50.848;4.652;2023-02-12T05:37:18;7.90;99.90
34837;DHT22;21053;50.848;4.652;2023-02-12T05:39:48;7.90;99.90
34837;DHT22;21053;50.848;4.652;2023-02-12T05:42:16;8.00;99.90
34837;DHT22;21053;50.848;4.652;2023-02-12T05:44:44;8.00;99.90
34837;DHT22;21053;50.848;4.652;2023-02-12T05:47:12;8.00;99.90
34837;DHT22;21053;50.848;4.652;2023-02-12T05:49:38;7.80;99.90
34837;DHT22;21053;50.848;4.652;2023-02-12T05:52:07;7.70;99.90
34837;DHT22;21053;50.848;4.652;2023-02-12T05:54:35;7.80;99.90
34837;DHT22;21053;50.848;4.652;2023-02-12T05:57:01;7.80;99.90
34837;DHT22;21053;50.848;4.652;2023-02-12T05:59:30;7.70;99.90
34837;DHT22;21053;50.848;4.652;2023-02-12T06:01:57;7.80;99.90
34837;DHT22;21053;50.848;4.652;2023-02-12T06:04:27;7.80;99.90
34837;DHT22;21053;50.848;4.652;2023-02-12T06:06:56;7.70;99.90
34837;DHT22;21053;50.848;4.652;2023-02-12T06:09:23;7.90;99.90
34837;DHT22;21053;50.848;4.652;2023-02-12T06:11:49;7.80;99.90
34837;DHT22;21053;50.848;4.652;2023-02-12T06:14:22;7.80;99.90
34837;DHT22;21053;50.848;4.652;2023-02-12T06:16:51;7.70;99.90
34837;DHT22;21053;50.848;4.652;2023-02-12T06:19:23;7.60;99.90
34837;DHT22;21053;50.848;4.652;2023-02-12T06:21:49;7.60;99.90
34837;DHT22;21053;50.848;4.652;2023-02-12T06:24:17;7.60;99.90
34837;DHT22;21053;50.848;4.652;2023-02-12T06:26:44;7.70;99.90
34837;DHT22;21053;50.848;4.652;2023-02-12T06:29:13;7.70;99.90
34837;DHT22;21053;50.848;4.652;2023-02-12T06:31:41;7.60;99.90
34837;DHT22;21053;50.848;4.652;2023-02-12T06:34:11;7.90;99.90
34837;DHT22;21053;50.848;4.652;2023-02-12T06:36:41;7.40;99.90
34837;DHT22;21053;50.848;4.652;2023-02-12T06:39:13;7.60;99.90
34837;DHT22;21053;50.848;4.652;2023-02-12T06:41:43;7.60;99.90
34837;DHT22;21053;50.848;4.652;2023-02-12T06:44:11;7.80;99.90
34837;DHT22;21053;50.848;4.652;2023-02-12T06:46:40;7.70;99.90
34837;DHT22;21053;50.848;4.652;2023-02-12T06:49:07;7.80;99.90
34837;DHT22;21053;50.848;4.652;2023-02-12T06:51:35;7.80;99.90
34837;DHT22;21053;50.848;4.652;2023-02-12T06:54:14;7.70;99.90
34837;DHT22;21053;50.848;4.652;2023-02-12T06:56:42;7.90;99.90
34837;DHT22;21053;50.848;4.652;2023-02-12T06:59:14;7.90;99.90
34837;DHT22;21053;50.848;4.652;2023-02-12T07:01:41;7.90;99.90
34837;DHT22;21053;50.848;4.652;2023-02-12T07:04:07;7.80;99.90
34837;DHT22;21053;50.848;4.652;2023-02-12T07:06:34;7.70;99.90
34837;DHT22;21053;50.848;4.652;2023-02-12T07:09:03;7.70;99.90
34837;DHT22;21053;50.848;4.652;2023-02-12T07:11:32;7.80;99.90
34837;DHT22;21053;50.848;4.652;2023-02-12T07:14:00;7.90;99.90
34837;DHT22;21053;50.848;4.652;2023-02-12T07:16:35;7.90;99.90
34837;DHT22;21053;50.848;4.652;2023-02-12T07:19:02;7.80;99.90
34837;DHT22;21053;50.848;4.652;2023-02-12T07:21:28;7.80;99.90
34837;DHT22;21053;50.848;4.652;2023-02-12T07:23:54;7.60;99.90
34837;DHT22;21053;50.848;4.652;2023-02-12T07:26:21;7.60;99.90
34837;DHT22;21053;50.848;4.652;2023-02-12T07:28:50;7.60;99.90
34837;DHT22;21053;50.848;4.652;2023-02-12T07:31:20;7.70;99.90
34837;DHT22;21053;50.848;4.652;2023-02-12T07:33:47;7.70;99.90
34837;DHT22;21053;50.848;4.652;2023-02-12T07:36:17;8.20;99.90
34837;DHT22;21053;50.848;4.652;2023-02-12T07:38:46;7.90;99.90
34837;DHT22;21053;50.848;4.652;2023-02-12T07:41:17;8.00;99.90
34837;DHT22;21053;50.848;4.652;2023-02-12T07:43:47;8.10;99.90
34837;DHT22;21053;50.848;4.652;2023-02-12T07:46:21;8.10;99.90
34837;DHT22;21053;50.848;4.652;2023-02-12T07:48:50;8.00;99.90
34837;DHT22;21053;50.848;4.652;2023-02-12T07:51:18;8.10;99.90
34837;DHT22;21053;50.848;4.652;2023-02-12T07:53:44;8.10;99.90
34837;DHT22;21053;50.848;4.652;2023-02-12T07:56:21;8.00;99.90
34837;DHT22;21053;50.848;4.652;2023-02-12T07:58:50;7.90;99.90
34837;DHT22;21053;50.848;4.652;2023-02-12T08:01:23;8.00;99.90
34837;DHT22;21053;50.848;4.652;2023-02-12T08:03:53;8.00;99.90
34837;DHT22;21053;50.848;4.652;2023-02-12T08:06:22;8.00;99.90
34837;DHT22;21053;50.848;4.652;2023-02-12T08:08:53;8.10;99.90
34837;DHT22;21053;50.848;4.652;2023-02-12T08:11:22;8.10;99.90
34837;DHT22;21053;50.848;4.652;2023-02-12T08:13:49;7.90;99.90
34837;DHT22;21053;50.848;4.652;2023-02-12T08:16:20;7.70;99.90
34837;DHT22;21053;50.848;4.652;2023-02-12T08:18:47;7.80;99.90
34837;DHT22;21053;50.848;4.652;2023-02-12T08:21:20;7.90;99.90
34837;DHT22;21053;50.848;4.652;2023-02-12T08:23:48;8.10;99.90
34837;DHT22;21053;50.848;4.652;2023-02-12T08:26:32;8.10;99.90
34837;DHT22;21053;50.848;4.652;2023-02-12T08:29:04;8.20;99.90
34837;DHT22;21053;50.848;4.652;2023-02-12T08:31:33;8.20;99.90
34837;DHT22;21053;50.848;4.652;2023-02-12T08:34:03;8.10;99.90
34837;DHT22;21053;50.848;4.652;2023-02-12T08:36:37;8.00;99.90
34837;DHT22;21053;50.848;4.652;2023-02-12T08:39:05;8.20;99.90
34837;DHT22;21053;50.848;4.652;2023-02-12T08:41:33;8.20;99.90
34837;DHT22;21053;50.848;4.652;2023-02-12T08:44:03;8.20;99.90
34837;DHT22;21053;50.848;4.652;2023-02-12T08:46:31;8.20;99.90
34837;DHT22;21053;50.848;4.652;2023-02-12T08:49:03;8.30;99.90
34837;DHT22;21053;50.848;4.652;2023-02-12T08:51:32;8.40;99.90
34837;DHT22;21053;50.848;4.652;2023-02-12T08:54:03;8.40;99.90
34837;DHT22;21053;50.848;4.652;2023-02-12T08:56:30;8.30;99.90
34837;DHT22;21053;50.848;4.652;2023-02-12T08:58:59;8.30;99.90
34837;DHT22;21053;50.848;4.652;2023-02-12T09:01:30;8.50;99.90
34837;DHT22;21053;50.848;4.652;2023-02-12T09:03:57;8.50;99.90
34837;DHT22;21053;50.848;4.652;2023-02-12T09:06:25;8.50;99.90
34837;DHT22;21053;50.848;4.652;2023-02-12T09:08:54;8.50;99.90
34837;DHT22;21053;50.848;4.652;2023-02-12T09:11:24;8.50;99.90
34837;DHT22;21053;50.848;4.652;2023-02-12T09:14:00;8.60;99.90
34837;DHT22;21053;50.848;4.652;2023-02-12T09:16:31;8.70;99.90
34837;DHT22;21053;50.848;4.652;2023-02-12T09:18:58;8.70;99.90
34837;DHT22;21053;50.848;4.652;2023-02-12T09:21:25;8.80;99.90
34837;DHT22;21053;50.848;4.652;2023-02-12T09:23:54;8.80;99.90
34837;DHT22;21053;50.848;4.652;2023-02-12T09:26:24;8.80;99.90
34837;DHT22;21053;50.848;4.652;2023-02-12T09:28:55;8.80;99.90
34837;DHT22;21053;50.848;4.652;2023-02-12T09:31:26;8.70;99.90
34837;DHT22;21053;50.848;4.652;2023-02-12T09:34:05;8.50;99.90
34837;DHT22;21053;50.848;4.652;2023-02-12T09:36:34;8.50;99.90
34837;DHT22;21053;50.848;4.652;2023-02-12T09:39:03;8.70;99.90
34837;DHT22;21053;50.848;4.652;2023-02-12T09:44:24;9.00;99.90
34837;DHT22;21053;50.848;4.652;2023-02-12T09:49:48;9.10;99.90
34837;DHT22;21053;50.848;4.652;2023-02-12T09:52:23;9.30;99.90
34837;DHT22;21053;50.848;4.652;2023-02-12T09:54:50;9.30;99.90
34837;DHT22;21053;50.848;4.652;2023-02-12T09:57:27;9.30;99.90
34837;DHT22;21053;50.848;4.652;2023-02-12T10:00:01;9.20;99.90
34837;DHT22;21053;50.848;4.652;2023-02-12T10:02:28;9.20;99.90
34837;DHT22;21053;50.848;4.652;2023-02-12T10:04:58;9.30;99.90
34837;DHT22;21053;50.848;4.652;2023-02-12T10:12:49;9.60;99.90
34837;DHT22;21053;50.848;4.652;2023-02-12T10:26:57;9.50;99.90
34837;DHT22;21053;50.848;4.652;2023-02-12T10:29:28;9.50;99.90
34837;DHT22;21053;50.848;4.652;2023-02-12T10:32:29;9.60;99.90
34837;DHT22;21053;50.848;4.652;2023-02-12T10:34:56;9.60;99.90
34837;DHT22;21053;50.848;4.652;2023-02-12T10:37:50;9.60;99.90
34837;DHT22;21053;50.848;4.652;2023-02-12T10:40:31;9.50;99.90
34837;DHT22;21053;50.848;4.652;2023-02-12T10:43:01;9.60;99.90
34837;DHT22;21053;50.848;4.652;2023-02-12T10:45:31;9.60;99.90
34837;DHT22;21053;50.848;4.652;2023-02-12T10:48:15;9.70;99.90
34837;DHT22;21053;50.848;4.652;2023-02-12T10:53:35;9.90;99.90
34837;DHT22;21053;50.848;4.652;2023-02-12T10:58:55;10.20;99.90
34837;DHT22;21053;50.848;4.652;2023-02-12T11:01:27;10.00;99.90
34837;DHT22;21053;50.848;4.652;2023-02-12T11:04:22;10.20;99.90
34837;DHT22;21053;50.848;4.652;2023-02-12T11:07:07;10.30;99.90
34837;DHT22;21053;50.848;4.652;2023-02-12T11:09:47;10.20;99.90
34837;DHT22;21053;50.848;4.652;2023-02-12T11:12:33;10.10;99.90
34837;DHT22;21053;50.848;4.652;2023-02-12T11:15:31;10.10;99.90
34837;DHT22;21053;50.848;4.652;2023-02-12T11:18:07;10.20;99.90
34837;DHT22;21053;50.848;4.652;2023-02-12T11:20:47;10.20;99.90
34837;DHT22;21053;50.848;4.652;2023-02-12T11:28:32;10.20;99.90
34837;DHT22;21053;50.848;4.652;2023-02-12T11:33:35;10.20;99.90
34837;DHT22;21053;50.848;4.652;2023-02-12T11:38:35;10.20;99.90
34837;DHT22;21053;50.848;4.652;2023-02-12T11:43:48;10.20;99.90
34837;DHT22;21053;50.848;4.652;2023-02-12T11:46:23;10.10;99.90
34837;DHT22;21053;50.848;4.652;2023-02-12T11:48:53;10.20;99.90
34837;DHT22;21053;50.848;4.652;2023-02-12T11:51:29;10.40;99.90
34837;DHT22;21053;50.848;4.652;2023-02-12T11:53:58;10.30;99.90
34837;DHT22;21053;50.848;4.652;2023-02-12T11:56:45;10.20;99.90
34837;DHT22;21053;50.848;4.652;2023-02-12T11:59:35;10.10;99.90
34837;DHT22;21053;50.848;4.652;2023-02-12T12:02:22;10.10;99.90
34837;DHT22;21053;50.848;4.652;2023-02-12T12:04:57;10.10;99.90
34837;DHT22;21053;50.848;4.652;2023-02-12T12:07:33;10.00;99.90
34837;DHT22;21053;50.848;4.652;2023-02-12T12:10:09;10.10;99.90
34837;DHT22;21053;50.848;4.652;2023-02-12T12:13:00;10.10;99.90
34837;DHT22;21053;50.848;4.652;2023-02-12T12:15:35;10.30;99.90
34837;DHT22;21053;50.848;4.652;2023-02-12T12:21:36;10.30;99.90
34837;DHT22;21053;50.848;4.652;2023-02-12T12:24:14;10.20;99.90
34837;DHT22;21053;50.848;4.652;2023-02-12T12:27:00;10.20;99.90
34837;DHT22;21053;50.848;4.652;2023-02-12T12:29:51;10.30;99.90
34837;DHT22;21053;50.848;4.652;2023-02-12T12:32:18;10.40;99.90
34837;DHT22;21053;50.848;4.652;2023-02-12T12:34:48;10.60;99.90
34837;DHT22;21053;50.848;4.652;2023-02-12T12:40:32;10.40;99.90
34837;DHT22;21053;50.848;4.652;2023-02-12T12:43:32;10.50;99.90
34837;DHT22;21053;50.848;4.652;2023-02-12T12:46:08;10.60;99.90
34837;DHT22;21053;50.848;4.652;2023-02-12T12:49:08;10.60;99.90
34837;DHT22;21053;50.848;4.652;2023-02-12T12:54:49;10.40;99.90
34837;DHT22;21053;50.848;4.652;2023-02-12T12:57:36;10.60;99.90
34837;DHT22;21053;50.848;4.652;2023-02-12T13:19:54;10.50;99.90
34837;DHT22;21053;50.848;4.652;2023-02-12T13:25:37;10.50;99.90
34837;DHT22;21053;50.848;4.652;2023-02-12T13:28:13;10.60;99.90
34837;DHT22;21053;50.848;4.652;2023-02-12T13:30:46;10.80;99.90
34837;DHT22;21053;50.848;4.652;2023-02-12T13:33:44;10.70;99.90
34837;DHT22;21053;50.848;4.652;2023-02-12T13:36:13;10.60;99.90
34837;DHT22;21053;50.848;4.652;2023-02-12T13:39:03;10.60;99.90
34837;DHT22;21053;50.848;4.652;2023-02-12T13:41:32;10.40;99.90
34837;DHT22;21053;50.848;4.652;2023-02-12T13:44:21;10.50;99.90
34837;DHT22;21053;50.848;4.652;2023-02-12T13:58:38;10.70;99.90
34837;DHT22;21053;50.848;4.652;2023-02-12T14:01:11;10.50;99.90
34837;DHT22;21053;50.848;4.652;2023-02-12T14:03:42;10.50;99.90
34837;DHT22;21053;50.848;4.652;2023-02-12T14:06:17;10.40;99.90
34837;DHT22;21053;50.848;4.652;2023-02-12T14:08:53;10.40;99.90
34837;DHT22;21053;50.848;4.652;2023-02-12T14:11:31;10.50;99.90
34837;DHT22;21053;50.848;4.652;2023-02-12T14:14:02;10.60;99.90
34837;DHT22;21053;50.848;4.652;2023-02-12T14:22:00;10.40;99.90
34837;DHT22;21053;50.848;4.652;2023-02-12T14:24:55;10.30;99.90
34837;DHT22;21053;50.848;4.652;2023-02-12T14:49:35;10.60;99.90
34837;DHT22;21053;50.848;4.652;2023-02-12T14:52:13;10.60;99.90
34837;DHT22;21053;50.848;4.652;2023-02-12T14:54:54;10.70;99.90
34837;DHT22;21053;50.848;4.652;2023-02-12T15:05:22;10.60;99.90
34837;DHT22;21053;50.848;4.652;2023-02-12T15:07:55;10.60;99.90
34837;DHT22;21053;50.848;4.652;2023-02-12T15:10:36;10.50;99.90
34837;DHT22;21053;50.848;4.652;2023-02-12T15:13:26;10.50;99.90
34837;DHT22;21053;50.848;4.652;2023-02-12T15:21:51;10.30;99.90
34837;DHT22;21053;50.848;4.652;2023-02-12T15:25:39;10.40;99.90
34837;DHT22;21053;50.848;4.652;2023-02-12T15:28:23;10.40;99.90
34837;DHT22;21053;50.848;4.652;2023-02-12T15:30:57;10.30;99.90
34837;DHT22;21053;50.848;4.652;2023-02-12T15:33:30;10.30;99.90
34837;DHT22;21053;50.848;4.652;2023-02-12T15:36:02;10.30;99.90
34837;DHT22;21053;50.848;4.652;2023-02-12T15:38:35;10.30;99.90
34837;DHT22;21053;50.848;4.652;2023-02-12T15:41:02;10.30;99.90
34837;DHT22;21053;50.848;4.652;2023-02-12T15:43:33;10.30;99.90
34837;DHT22;21053;50.848;4.652;2023-02-12T15:46:04;10.30;99.90
34837;DHT22;21053;50.848;4.652;2023-02-12T15:48:36;10.30;99.90
34837;DHT22;21053;50.848;4.652;2023-02-12T15:51:26;10.40;99.90
34837;DHT22;21053;50.848;4.652;2023-02-12T15:56:23;10.30;99.90
34837;DHT22;21053;50.848;4.652;2023-02-12T15:58:54;10.30;99.90
34837;DHT22;21053;50.848;4.652;2023-02-12T16:01:27;10.10;99.90
34837;DHT22;21053;50.848;4.652;2023-02-12T16:03:59;10.20;99.90
34837;DHT22;21053;50.848;4.652;2023-02-12T16:06:30;10.20;99.90
34837;DHT22;21053;50.848;4.652;2023-02-12T16:09:18;10.10;99.90
34837;DHT22;21053;50.848;4.652;2023-02-12T16:11:53;10.00;99.90
34837;DHT22;21053;50.848;4.652;2023-02-12T16:14:36;10.00;99.90
34837;DHT22;21053;50.848;4.652;2023-02-12T16:20:03;9.90;99.90
34837;DHT22;21053;50.848;4.652;2023-02-12T16:22:36;10.00;99.90
34837;DHT22;21053;50.848;4.652;2023-02-12T16:25:23;9.90;99.90
34837;DHT22;21053;50.848;4.652;2023-02-12T16:28:00;9.90;99.90
34837;DHT22;21053;50.848;4.652;2023-02-12T16:30:38;9.90;99.90
34837;DHT22;21053;50.848;4.652;2023-02-12T16:46:34;9.70;99.90
34837;DHT22;21053;50.848;4.652;2023-02-12T16:49:16;9.70;99.90
34837;DHT22;21053;50.848;4.652;2023-02-12T16:51:45;9.70;99.90
34837;DHT22;21053;50.848;4.652;2023-02-12T16:54:34;9.60;99.90
34837;DHT22;21053;50.848;4.652;2023-02-12T16:57:02;9.60;99.90
34837;DHT22;21053;50.848;4.652;2023-02-12T16:59:28;9.70;99.90
34837;DHT22;21053;50.848;4.652;2023-02-12T17:02:00;9.70;99.90
34837;DHT22;21053;50.848;4.652;2023-02-12T17:04:28;9.70;99.90
34837;DHT22;21053;50.848;4.652;2023-02-12T17:06:56;9.70;99.90
34837;DHT22;21053;50.848;4.652;2023-02-12T17:09:24;9.60;99.90
34837;DHT22;21053;50.848;4.652;2023-02-12T17:11:53;9.90;99.90
34837;DHT22;21053;50.848;4.652;2023-02-12T17:14:20;9.70;99.90
34837;DHT22;21053;50.848;4.652;2023-02-12T17:16:47;9.70;99.90
34837;DHT22;21053;50.848;4.652;2023-02-12T17:19:14;9.70;99.90
34837;DHT22;21053;50.848;4.652;2023-02-12T17:21:43;9.70;99.90
34837;DHT22;21053;50.848;4.652;2023-02-12T17:24:22;9.70;99.90
34837;DHT22;21053;50.848;4.652;2023-02-12T17:26:52;9.60;99.90
34837;DHT22;21053;50.848;4.652;2023-02-12T17:29:20;9.50;99.90
34837;DHT22;21053;50.848;4.652;2023-02-12T17:31:51;9.60;99.90
34837;DHT22;21053;50.848;4.652;2023-02-12T17:34:23;9.60;99.90
34837;DHT22;21053;50.848;4.652;2023-02-12T17:36:52;9.70;99.90
34837;DHT22;21053;50.848;4.652;2023-02-12T17:39:19;9.70;99.90
34837;DHT22;21053;50.848;4.652;2023-02-12T17:41:48;9.70;99.90
34837;DHT22;21053;50.848;4.652;2023-02-12T17:44:17;9.70;99.90
34837;DHT22;21053;50.848;4.652;2023-02-12T17:46:49;9.70;99.90
34837;DHT22;21053;50.848;4.652;2023-02-12T17:49:17;9.50;99.90
34837;DHT22;21053;50.848;4.652;2023-02-12T17:51:44;9.50;99.90
34837;DHT22;21053;50.848;4.652;2023-02-12T17:54:11;9.50;99.90
34837;DHT22;21053;50.848;4.652;2023-02-12T17:56:40;9.50;99.90
34837;DHT22;21053;50.848;4.652;2023-02-12T17:59:09;9.60;99.90
34837;DHT22;21053;50.848;4.652;2023-02-12T18:01:35;9.70;99.90
34837;DHT22;21053;50.848;4.652;2023-02-12T18:04:04;9.80;99.90
34837;DHT22;21053;50.848;4.652;2023-02-12T18:06:33;9.80;99.90
34837;DHT22;21053;50.848;4.652;2023-02-12T18:09:02;9.80;99.90
34837;DHT22;21053;50.848;4.652;2023-02-12T18:11:31;9.70;99.90
34837;DHT22;21053;50.848;4.652;2023-02-12T18:13:59;9.60;99.90
34837;DHT22;21053;50.848;4.652;2023-02-12T18:16:29;9.70;99.90
34837;DHT22;21053;50.848;4.652;2023-02-12T18:18:57;9.80;99.90
34837;DHT22;21053;50.848;4.652;2023-02-12T18:21:27;9.70;99.90
34837;DHT22;21053;50.848;4.652;2023-02-12T18:23:53;9.80;99.90
34837;DHT22;21053;50.848;4.652;2023-02-12T18:26:22;9.80;99.90
34837;DHT22;21053;50.848;4.652;2023-02-12T18:28:51;9.60;99.90
34837;DHT22;21053;50.848;4.652;2023-02-12T18:31:19;9.60;99.90
34837;DHT22;21053;50.848;4.652;2023-02-12T18:33:46;9.70;99.90
34837;DHT22;21053;50.848;4.652;2023-02-12T18:36:17;9.70;99.90
34837;DHT22;21053;50.848;4.652;2023-02-12T18:38:47;9.70;99.90
34837;DHT22;21053;50.848;4.652;2023-02-12T18:41:22;9.70;99.90
34837;DHT22;21053;50.848;4.652;2023-02-12T18:43:48;9.60;99.90
34837;DHT22;21053;50.848;4.652;2023-02-12T18:46:21;9.60;99.90
34837;DHT22;21053;50.848;4.652;2023-02-12T18:48:59;9.60;99.90
34837;DHT22;21053;50.848;4.652;2023-02-12T18:51:27;9.70;99.90
34837;DHT22;21053;50.848;4.652;2023-02-12T18:53:59;9.60;99.90
34837;DHT22;21053;50.848;4.652;2023-02-12T18:56:32;9.60;99.90
34837;DHT22;21053;50.848;4.652;2023-02-12T18:59:03;9.50;99.90
34837;DHT22;21053;50.848;4.652;2023-02-12T19:01:30;9.50;99.90
34837;DHT22;21053;50.848;4.652;2023-02-12T19:04:00;9.40;99.90
34837;DHT22;21053;50.848;4.652;2023-02-12T19:06:28;9.50;99.90
34837;DHT22;21053;50.848;4.652;2023-02-12T19:09:00;9.50;99.90
34837;DHT22;21053;50.848;4.652;2023-02-12T19:11:27;9.40;99.90
34837;DHT22;21053;50.848;4.652;2023-02-12T19:13:54;9.50;99.90
34837;DHT22;21053;50.848;4.652;2023-02-12T19:16:26;9.40;99.90
34837;DHT22;21053;50.848;4.652;2023-02-12T19:18:55;9.40;99.90
34837;DHT22;21053;50.848;4.652;2023-02-12T19:21:25;9.30;99.90
34837;DHT22;21053;50.848;4.652;2023-02-12T19:23:57;9.30;99.90
34837;DHT22;21053;50.848;4.652;2023-02-12T19:26:24;9.40;99.90